Vilas, Colorado
Current Conditions -  °F | °C
As of 2:53 PM on Friday 31 Oct 2014 (Local Time) from KLAA Reporting Station
Clear Clear  
Wind Chill: 59°   Ceiling: Unl
Heat Index: 59°   Visibility: 10mi
Dew Point: 28°   Wind: 21mph
Humidity: 31%   Direction: 160°SSE
Pressure: 30.26"   Gusts: 30mph
Location:  37.37°N, 102.45°W
Report Text: KLAA 312053Z AUTO 16018G26KT 10SM CLR 15/M02 A3026 RMK AO2 PK WND 14028/2033 SLP240 T01501022 56040
Loading
Personal Weather Stations






























Interactive Weather Map
Tropical Storm Tracking
New forecast layout! Learn more

10-Day Weather Forecast

Advertisements
Track Severe Weather on mobile